createdAt,value
2022-10-17T00:01:08.257Z,3.50
2022-10-17T00:06:12.936Z,2.35
2022-10-17T00:11:18.848Z,3.00
2022-10-17T00:16:29.019Z,2.63
2022-10-17T00:21:30.904Z,2.17
2022-10-17T00:26:32.614Z,2.75
2022-10-17T00:31:35.570Z,2.50
2022-10-17T00:36:37.575Z,1.90
2022-10-17T00:41:39.429Z,2.55
2022-10-17T00:46:40.944Z,2.92
2022-10-17T00:51:50.070Z,2.13
2022-10-17T00:56:52.455Z,3.30
2022-10-17T01:02:01.901Z,2.60
2022-10-17T01:07:03.358Z,2.50
2022-10-17T01:12:14.057Z,2.50
2022-10-17T01:17:31.658Z,2.78
2022-10-17T01:22:41.615Z,2.55
2022-10-17T01:27:42.952Z,2.22
2022-10-17T01:32:55.112Z,3.13
2022-10-17T01:38:10.265Z,2.88
2022-10-17T01:43:45.205Z,2.53
2022-10-17T01:48:46.753Z,2.53
2022-10-17T01:54:00.866Z,3.13
2022-10-17T01:59:15.039Z,3.17
2022-10-17T02:04:16.531Z,2.08
2022-10-17T02:09:20.860Z,3.08
2022-10-17T02:14:41.016Z,2.47
2022-10-17T02:20:16.302Z,3.33
2022-10-17T02:25:28.032Z,2.10
2022-10-17T02:30:41.835Z,2.53
2022-10-17T02:35:47.758Z,2.55
2022-10-17T02:40:51.500Z,2.50
2022-10-17T02:45:53.980Z,2.20
2022-10-17T02:51:25.820Z,2.63
2022-10-17T02:56:30.884Z,2.17
2022-10-17T03:01:32.624Z,2.72
2022-10-17T03:06:34.126Z,2.20
2022-10-17T03:11:35.532Z,1.98
2022-10-17T03:16:36.991Z,1.70
2022-10-17T03:21:38.474Z,2.20
2022-10-17T03:26:39.968Z,2.00
2022-10-17T03:31:41.448Z,1.95
2022-10-17T03:36:43.544Z,1.75
2022-10-17T03:41:44.952Z,2.58
2022-10-17T03:46:46.512Z,1.60
2022-10-17T03:51:47.957Z,2.40
2022-10-17T03:56:49.509Z,1.90
2022-10-17T04:01:50.980Z,2.53
2022-10-17T04:06:52.395Z,1.73
2022-10-17T04:11:53.818Z,2.30
2022-10-17T04:16:55.324Z,1.83
2022-10-17T04:21:56.770Z,1.50
2022-10-17T04:26:58.269Z,1.75
2022-10-17T04:31:59.746Z,2.08
2022-10-17T04:37:01.179Z,1.60
2022-10-17T04:42:02.631Z,2.15
2022-10-17T04:47:04.593Z,1.98
2022-10-17T04:52:06.033Z,1.73
2022-10-17T04:57:07.503Z,2.67
2022-10-17T05:02:09.019Z,1.88
2022-10-17T05:07:10.599Z,1.63
2022-10-17T05:12:12.061Z,1.80
2022-10-17T05:17:13.466Z,2.00
2022-10-17T05:22:15.113Z,1.60
2022-10-17T05:27:16.561Z,1.77
2022-10-17T05:32:18.013Z,2.50
2022-10-17T05:37:19.444Z,2.17
2022-10-17T05:42:21.173Z,2.40
2022-10-17T05:47:22.721Z,2.20
2022-10-17T05:52:24.164Z,1.90
2022-10-17T05:57:26.559Z,1.80
2022-10-17T06:02:28.342Z,2.28
2022-10-17T06:07:30.156Z,1.80
2022-10-17T06:12:31.836Z,2.00
2022-10-17T06:17:33.514Z,1.77
2022-10-17T06:22:34.971Z,2.28
2022-10-17T06:27:36.430Z,2.20
2022-10-17T06:32:37.848Z,2.05
2022-10-17T06:37:39.577Z,1.85
2022-10-17T06:42:41.736Z,2.55
2022-10-17T06:47:43.225Z,2.13
2022-10-17T06:52:44.648Z,1.85
2022-10-17T06:57:46.120Z,1.90
2022-10-17T07:02:47.537Z,2.00
2022-10-17T07:07:51.749Z,2.30
2022-10-17T07:17:54.708Z,2.35
2022-10-17T07:22:56.219Z,2.10
2022-10-17T07:27:57.707Z,2.00
2022-10-17T07:32:59.132Z,2.20
2022-10-17T07:38:00.558Z,2.10
2022-10-17T07:43:01.999Z,1.98
2022-10-17T07:48:03.605Z,2.20
2022-10-17T07:53:05.057Z,2.10
2022-10-17T07:58:08.941Z,2.15
2022-10-17T08:03:11.439Z,2.33
2022-10-17T08:08:12.960Z,2.15
2022-10-17T08:13:14.383Z,1.90
2022-10-17T08:18:15.989Z,2.00
2022-10-17T08:23:17.447Z,1.85
2022-10-17T08:28:18.868Z,1.90
2022-10-17T08:33:20.318Z,1.98
2022-10-17T08:38:23.286Z,2.28
2022-10-17T08:43:37.735Z,2.28
2022-10-17T08:48:46.591Z,1.90
2022-10-17T08:53:53.787Z,1.88
2022-10-17T08:58:55.298Z,2.40
2022-10-17T09:04:16.092Z,2.10
2022-10-17T09:09:28.004Z,2.25
2022-10-17T09:15:02.998Z,2.20
2022-10-17T09:20:19.765Z,3.55
2022-10-17T09:25:21.763Z,1.80
2022-10-17T09:30:46.192Z,2.20
2022-10-17T09:35:49.945Z,1.95
2022-10-17T09:40:57.215Z,2.40
2022-10-17T09:46:15.970Z,2.35
2022-10-17T09:51:25.762Z,2.28
2022-10-17T09:56:27.775Z,2.33
2022-10-17T10:01:31.426Z,3.97
2022-10-17T10:06:32.928Z,2.05
2022-10-17T10:11:49.871Z,2.70
2022-10-17T10:16:53.710Z,2.47
2022-10-17T10:21:58.691Z,2.10
2022-10-17T10:27:03.173Z,2.38
2022-10-17T10:32:16.385Z,2.80
2022-10-17T10:37:30.757Z,2.58
2022-10-17T10:42:39.470Z,2.35
2022-10-17T10:47:51.704Z,2.83
2022-10-17T10:53:34.211Z,2.40
2022-10-17T10:58:48.541Z,2.90
2022-10-17T11:04:04.942Z,2.97
2022-10-17T11:09:32.974Z,2.83
2022-10-17T11:14:47.935Z,3.58
2022-10-17T11:20:15.201Z,4.47
2022-10-17T11:25:40.281Z,3.80
2022-10-17T11:31:13.226Z,4.00
2022-10-17T11:36:17.984Z,4.00
2022-10-17T11:41:29.825Z,4.43
2022-10-17T11:46:36.056Z,4.00
2022-10-17T11:52:04.239Z,4.22
2022-10-17T11:57:19.872Z,4.05
2022-10-17T12:02:32.999Z,4.40
2022-10-17T12:07:56.354Z,4.40
2022-10-17T12:12:57.906Z,4.45
2022-10-17T12:18:04.051Z,4.53
2022-10-17T12:23:11.600Z,4.80
2022-10-17T12:28:16.812Z,5.40
2022-10-17T12:33:27.828Z,5.28
2022-10-17T12:38:29.321Z,6.38
2022-10-17T12:43:30.781Z,6.18
2022-10-17T12:48:38.475Z,7.28
2022-10-17T12:53:43.506Z,8.68
2022-10-17T12:58:48.673Z,8.63
2022-10-17T13:03:52.482Z,10.35
2022-10-17T13:09:20.744Z,9.60
2022-10-17T13:14:24.489Z,9.00
2022-10-17T13:19:30.169Z,10.77
2022-10-17T13:24:32.948Z,10.38
2022-10-17T13:29:34.577Z,9.05
2022-10-17T13:34:36.146Z,9.60
2022-10-17T13:39:55.248Z,8.98
2022-10-17T13:44:59.118Z,9.73
2022-10-17T13:50:00.991Z,9.50
2022-10-17T13:55:14.208Z,9.07
2022-10-17T14:00:28.221Z,10.40
2022-10-17T14:05:29.742Z,10.82
2022-10-17T14:10:32.866Z,11.63
2022-10-17T14:15:36.629Z,10.68
2022-10-17T14:21:19.732Z,11.73
2022-10-17T14:26:12.314Z,11.30
2022-10-17T14:31:25.414Z,13.20
2022-10-17T14:36:51.262Z,13.10
2022-10-17T14:41:53.795Z,11.45
2022-10-17T14:47:38.190Z,12.15
2022-10-17T14:52:31.541Z,11.23
2022-10-17T14:57:33.214Z,10.77
2022-10-17T15:02:34.869Z,10.27
2022-10-17T15:07:36.298Z,8.85
2022-10-17T15:12:37.713Z,7.68
2022-10-17T15:17:39.339Z,6.50
2022-10-17T15:22:40.808Z,5.88
2022-10-17T15:27:42.300Z,5.65
2022-10-17T15:32:43.773Z,6.28
2022-10-17T15:37:46.776Z,5.63
2022-10-17T15:42:48.393Z,5.97
2022-10-17T15:47:52.792Z,5.40
2022-10-17T15:52:54.244Z,4.20
2022-10-17T15:57:55.824Z,4.55
2022-10-17T16:02:57.325Z,4.70
2022-10-17T16:07:58.759Z,4.88
2022-10-17T16:13:00.175Z,5.18
2022-10-17T16:18:04.285Z,4.10
2022-10-17T16:23:08.419Z,5.00
2022-10-17T16:28:11.784Z,5.03
2022-10-17T16:33:13.377Z,5.30
2022-10-17T16:38:16.064Z,5.53
2022-10-17T16:43:17.538Z,6.78
2022-10-17T16:48:26.162Z,6.18
2022-10-17T16:53:30.934Z,9.40
2022-10-17T16:58:32.402Z,5.72
2022-10-17T17:03:37.967Z,6.93
2022-10-17T17:08:40.281Z,6.75
2022-10-17T17:13:41.772Z,6.28
2022-10-17T17:18:43.445Z,6.47
2022-10-17T17:23:44.961Z,5.75
2022-10-17T17:28:47.335Z,6.40
2022-10-17T17:33:49.191Z,6.07
2022-10-17T17:38:53.435Z,6.30
2022-10-17T17:48:57.190Z,5.45
2022-10-17T17:53:58.669Z,6.15
2022-10-17T17:59:02.359Z,4.95
2022-10-17T18:04:05.750Z,5.45
2022-10-17T18:09:07.980Z,7.03
2022-10-17T18:14:12.569Z,6.75
2022-10-17T18:19:14.068Z,6.20
2022-10-17T18:24:15.652Z,5.57
2022-10-17T18:29:17.206Z,6.10
2022-10-17T18:34:18.660Z,6.07
2022-10-17T18:39:20.516Z,7.13
2022-10-17T18:44:21.947Z,6.70
2022-10-17T18:49:23.493Z,6.72
2022-10-17T18:54:24.904Z,6.22
2022-10-17T18:59:26.433Z,6.70
2022-10-17T19:04:27.950Z,6.95
2022-10-17T19:09:29.574Z,7.95
2022-10-17T19:14:31.345Z,7.45
2022-10-17T19:19:33.342Z,8.30
2022-10-17T19:24:35.132Z,9.70
2022-10-17T19:29:36.547Z,9.45
2022-10-17T19:34:38.201Z,10.63
2022-10-17T19:39:39.692Z,11.70
2022-10-17T19:44:41.095Z,12.02
2022-10-17T19:49:46.485Z,9.98
2022-10-17T19:54:50.531Z,11.32
2022-10-17T19:59:53.742Z,12.63
2022-10-17T20:05:13.932Z,11.90
2022-10-17T20:10:18.922Z,12.80
2022-10-17T20:15:20.421Z,11.68
2022-10-17T20:20:22.117Z,11.25
2022-10-17T20:25:23.579Z,11.05
2022-10-17T20:30:25.115Z,11.13
2022-10-17T20:35:26.580Z,9.23
2022-10-17T20:40:35.847Z,9.13
2022-10-17T20:45:50.714Z,8.85
2022-10-17T20:50:53.733Z,9.80
2022-10-17T20:56:17.050Z,9.40
2022-10-17T21:01:18.721Z,9.50
2022-10-17T21:06:21.073Z,8.50
2022-10-17T21:11:24.875Z,8.80
2022-10-17T21:16:27.535Z,8.93
2022-10-17T21:21:40.893Z,8.52
2022-10-17T21:26:43.897Z,8.50
2022-10-17T21:31:45.416Z,9.75
2022-10-17T21:36:48.070Z,8.98
2022-10-17T21:41:49.504Z,9.38
2022-10-17T21:46:51.982Z,8.05
2022-10-17T21:51:53.656Z,9.60
2022-10-17T21:56:55.059Z,9.00
2022-10-17T22:01:56.498Z,9.65
2022-10-17T22:06:57.989Z,10.00
2022-10-17T22:11:59.462Z,10.43
2022-10-17T22:17:01.568Z,9.80
2022-10-17T22:22:02.996Z,10.68
2022-10-17T22:27:04.708Z,11.02
2022-10-17T22:32:06.156Z,10.90
2022-10-17T22:37:07.624Z,10.73
2022-10-17T22:42:09.140Z,10.55
2022-10-17T22:47:10.607Z,10.43
2022-10-17T22:52:12.112Z,11.57
2022-10-17T22:57:13.541Z,10.57
2022-10-17T23:02:14.959Z,11.57
2022-10-17T23:07:16.417Z,12.43
2022-10-17T23:12:17.977Z,12.13
2022-10-17T23:17:19.373Z,10.77
2022-10-17T23:22:20.783Z,12.25
2022-10-17T23:27:22.249Z,11.57
2022-10-17T23:32:23.708Z,11.75
2022-10-17T23:37:25.161Z,10.48
2022-10-17T23:42:27.116Z,11.60
2022-10-17T23:47:28.865Z,11.52
2022-10-17T23:52:31.011Z,12.10
2022-10-17T23:57:32.824Z,11.27
